Terminal Aerodrome Forecast
Issued by NWS

Home | Current Version | Previous Version | Text Only | Print | Product List | Glossary On
Versions: 1 2 3 4 5 6 7 8 9 10 11 12 13
000
FTUS42 TJSJ 191721 CCA
TAFKPK
TAF COR
TKPK 191721Z 1918/2018 06020G30KT P6SM SCT020
     FM192300 06015KT P6SM SCT018
     FM201300 06020KT P6SM FEW020
      AMD NOT SKED 2002/2011=

USA.gov is the U.S. government's official web portal to all federal, state and local government web resources and services.